sensor_id;sensor_type;location;lat;lon;timestamp;temperature;humidity
14893;DHT22;7538;53.626;9.906;2022-10-16T00:02:14;15.10;99.90
14893;DHT22;7538;53.626;9.906;2022-10-16T00:04:42;15.00;99.90
14893;DHT22;7538;53.626;9.906;2022-10-16T00:07:09;15.00;99.90
14893;DHT22;7538;53.626;9.906;2022-10-16T00:09:36;15.00;99.90
14893;DHT22;7538;53.626;9.906;2022-10-16T00:12:03;15.00;99.90
14893;DHT22;7538;53.626;9.906;2022-10-16T00:14:32;15.00;99.90
14893;DHT22;7538;53.626;9.906;2022-10-16T00:16:59;15.00;99.90
14893;DHT22;7538;53.626;9.906;2022-10-16T00:19:34;14.90;99.90
14893;DHT22;7538;53.626;9.906;2022-10-16T00:22:02;15.00;99.90
14893;DHT22;7538;53.626;9.906;2022-10-16T00:24:29;15.00;99.90
14893;DHT22;7538;53.626;9.906;2022-10-16T00:26:56;15.00;99.90
14893;DHT22;7538;53.626;9.906;2022-10-16T00:29:23;15.00;99.90
14893;DHT22;7538;53.626;9.906;2022-10-16T00:31:55;15.00;99.90
14893;DHT22;7538;53.626;9.906;2022-10-16T00:34:22;15.00;99.90
14893;DHT22;7538;53.626;9.906;2022-10-16T00:36:48;15.00;99.90
14893;DHT22;7538;53.626;9.906;2022-10-16T00:39:17;15.00;99.90
14893;DHT22;7538;53.626;9.906;2022-10-16T00:41:43;15.10;99.90
14893;DHT22;7538;53.626;9.906;2022-10-16T00:44:43;15.10;99.90
14893;DHT22;7538;53.626;9.906;2022-10-16T00:47:11;15.10;99.90
14893;DHT22;7538;53.626;9.906;2022-10-16T00:49:39;15.10;99.90
14893;DHT22;7538;53.626;9.906;2022-10-16T00:52:06;15.10;99.90
14893;DHT22;7538;53.626;9.906;2022-10-16T00:54:34;15.00;99.90
14893;DHT22;7538;53.626;9.906;2022-10-16T00:57:03;15.10;99.90
14893;DHT22;7538;53.626;9.906;2022-10-16T00:59:33;15.10;99.90
14893;DHT22;7538;53.626;9.906;2022-10-16T01:02:01;15.10;99.90
14893;DHT22;7538;53.626;9.906;2022-10-16T01:04:32;15.10;99.90
14893;DHT22;7538;53.626;9.906;2022-10-16T01:07:07;15.00;99.90
14893;DHT22;7538;53.626;9.906;2022-10-16T01:09:47;15.10;99.90
14893;DHT22;7538;53.626;9.906;2022-10-16T01:12:25;15.00;99.90
14893;DHT22;7538;53.626;9.906;2022-10-16T01:14:59;15.00;99.90
14893;DHT22;7538;53.626;9.906;2022-10-16T01:17:34;15.00;99.90
14893;DHT22;7538;53.626;9.906;2022-10-16T01:20:08;15.00;99.90
14893;DHT22;7538;53.626;9.906;2022-10-16T01:22:43;14.90;99.90
14893;DHT22;7538;53.626;9.906;2022-10-16T01:25:18;14.80;99.90
14893;DHT22;7538;53.626;9.906;2022-10-16T01:27:47;14.80;99.90
14893;DHT22;7538;53.626;9.906;2022-10-16T01:30:18;14.80;99.90
14893;DHT22;7538;53.626;9.906;2022-10-16T01:32:50;14.70;99.90
14893;DHT22;7538;53.626;9.906;2022-10-16T01:35:23;14.70;99.90
14893;DHT22;7538;53.626;9.906;2022-10-16T01:37:55;14.60;99.90
14893;DHT22;7538;53.626;9.906;2022-10-16T01:40:26;14.60;99.90
14893;DHT22;7538;53.626;9.906;2022-10-16T01:42:58;14.60;99.90
14893;DHT22;7538;53.626;9.906;2022-10-16T01:45:28;14.60;99.90
14893;DHT22;7538;53.626;9.906;2022-10-16T01:47:59;14.60;99.90
14893;DHT22;7538;53.626;9.906;2022-10-16T01:50:31;14.50;99.90
14893;DHT22;7538;53.626;9.906;2022-10-16T01:53:00;14.50;99.90
14893;DHT22;7538;53.626;9.906;2022-10-16T01:55:30;14.40;99.90
14893;DHT22;7538;53.626;9.906;2022-10-16T01:58:02;14.40;99.90
14893;DHT22;7538;53.626;9.906;2022-10-16T02:00:31;14.40;99.90
14893;DHT22;7538;53.626;9.906;2022-10-16T02:03:01;14.70;99.90
14893;DHT22;7538;53.626;9.906;2022-10-16T02:05:31;14.30;99.90
14893;DHT22;7538;53.626;9.906;2022-10-16T02:07:58;14.30;99.90
14893;DHT22;7538;53.626;9.906;2022-10-16T02:10:25;14.30;99.90
14893;DHT22;7538;53.626;9.906;2022-10-16T02:13:00;14.30;99.90
14893;DHT22;7538;53.626;9.906;2022-10-16T02:15:28;14.30;99.90
14893;DHT22;7538;53.626;9.906;2022-10-16T02:17:55;14.30;99.90
14893;DHT22;7538;53.626;9.906;2022-10-16T02:20:26;14.30;99.90
14893;DHT22;7538;53.626;9.906;2022-10-16T02:22:54;14.30;99.90
14893;DHT22;7538;53.626;9.906;2022-10-16T02:25:27;14.20;99.90
14893;DHT22;7538;53.626;9.906;2022-10-16T02:28:00;14.20;99.90
14893;DHT22;7538;53.626;9.906;2022-10-16T02:30:34;14.20;99.90
14893;DHT22;7538;53.626;9.906;2022-10-16T02:33:05;14.20;99.90
14893;DHT22;7538;53.626;9.906;2022-10-16T02:35:34;14.10;99.90
14893;DHT22;7538;53.626;9.906;2022-10-16T02:38:01;14.10;99.90
14893;DHT22;7538;53.626;9.906;2022-10-16T02:40:29;14.10;99.90
14893;DHT22;7538;53.626;9.906;2022-10-16T02:42:55;14.10;99.90
14893;DHT22;7538;53.626;9.906;2022-10-16T02:45:23;14.10;99.90
14893;DHT22;7538;53.626;9.906;2022-10-16T02:47:51;14.10;99.90
14893;DHT22;7538;53.626;9.906;2022-10-16T02:50:18;14.10;99.90
14893;DHT22;7538;53.626;9.906;2022-10-16T02:52:45;14.00;99.90
14893;DHT22;7538;53.626;9.906;2022-10-16T02:55:12;14.00;99.90
14893;DHT22;7538;53.626;9.906;2022-10-16T02:57:39;13.90;99.90
14893;DHT22;7538;53.626;9.906;2022-10-16T03:00:07;13.90;99.90
14893;DHT22;7538;53.626;9.906;2022-10-16T03:02:34;13.90;99.90
14893;DHT22;7538;53.626;9.906;2022-10-16T03:05:02;13.90;99.90
14893;DHT22;7538;53.626;9.906;2022-10-16T03:07:29;13.80;99.90
14893;DHT22;7538;53.626;9.906;2022-10-16T03:09:56;13.80;99.90
14893;DHT22;7538;53.626;9.906;2022-10-16T03:12:25;13.80;99.90
14893;DHT22;7538;53.626;9.906;2022-10-16T03:14:52;13.70;99.90
14893;DHT22;7538;53.626;9.906;2022-10-16T03:17:19;13.80;99.90
14893;DHT22;7538;53.626;9.906;2022-10-16T03:19:45;13.70;99.90
14893;DHT22;7538;53.626;9.906;2022-10-16T03:22:13;15.20;99.90
14893;DHT22;7538;53.626;9.906;2022-10-16T03:24:40;13.60;99.90
14893;DHT22;7538;53.626;9.906;2022-10-16T03:27:07;13.60;99.90
14893;DHT22;7538;53.626;9.906;2022-10-16T03:29:34;13.50;99.90
14893;DHT22;7538;53.626;9.906;2022-10-16T03:32:01;13.50;99.90
14893;DHT22;7538;53.626;9.906;2022-10-16T03:34:27;13.50;99.90
14893;DHT22;7538;53.626;9.906;2022-10-16T03:36:55;13.50;99.90
14893;DHT22;7538;53.626;9.906;2022-10-16T03:39:23;13.50;99.90
14893;DHT22;7538;53.626;9.906;2022-10-16T03:41:50;13.50;99.90
14893;DHT22;7538;53.626;9.906;2022-10-16T03:44:16;13.40;99.90
14893;DHT22;7538;53.626;9.906;2022-10-16T03:46:43;13.30;99.90
14893;DHT22;7538;53.626;9.906;2022-10-16T03:49:10;13.30;99.90
14893;DHT22;7538;53.626;9.906;2022-10-16T03:51:37;13.30;99.90
14893;DHT22;7538;53.626;9.906;2022-10-16T03:54:04;13.30;99.90
14893;DHT22;7538;53.626;9.906;2022-10-16T03:56:32;13.30;99.90
14893;DHT22;7538;53.626;9.906;2022-10-16T03:58:58;13.40;99.90
14893;DHT22;7538;53.626;9.906;2022-10-16T04:01:25;13.40;99.90
14893;DHT22;7538;53.626;9.906;2022-10-16T04:03:52;13.40;99.90
14893;DHT22;7538;53.626;9.906;2022-10-16T04:06:19;13.40;99.90
14893;DHT22;7538;53.626;9.906;2022-10-16T04:08:45;13.40;99.90
14893;DHT22;7538;53.626;9.906;2022-10-16T04:11:12;13.40;99.90
14893;DHT22;7538;53.626;9.906;2022-10-16T04:13:40;13.40;99.90
14893;DHT22;7538;53.626;9.906;2022-10-16T04:16:07;11.80;99.90
14893;DHT22;7538;53.626;9.906;2022-10-16T04:18:34;13.40;99.90
14893;DHT22;7538;53.626;9.906;2022-10-16T04:21:03;13.40;99.90
14893;DHT22;7538;53.626;9.906;2022-10-16T04:23:29;13.50;99.90
14893;DHT22;7538;53.626;9.906;2022-10-16T04:25:56;13.50;99.90
14893;DHT22;7538;53.626;9.906;2022-10-16T04:28:23;13.50;99.90
14893;DHT22;7538;53.626;9.906;2022-10-16T04:30:51;13.50;99.90
14893;DHT22;7538;53.626;9.906;2022-10-16T04:33:18;13.50;99.90
14893;DHT22;7538;53.626;9.906;2022-10-16T04:35:44;13.50;99.90
14893;DHT22;7538;53.626;9.906;2022-10-16T04:38:11;13.50;99.90
14893;DHT22;7538;53.626;9.906;2022-10-16T04:40:38;13.00;99.90
14893;DHT22;7538;53.626;9.906;2022-10-16T04:43:05;13.40;99.90
14893;DHT22;7538;53.626;9.906;2022-10-16T04:45:32;13.40;99.90
14893;DHT22;7538;53.626;9.906;2022-10-16T04:48:01;13.40;99.90
14893;DHT22;7538;53.626;9.906;2022-10-16T04:50:27;13.40;99.90
14893;DHT22;7538;53.626;9.906;2022-10-16T04:52:54;13.30;99.90
14893;DHT22;7538;53.626;9.906;2022-10-16T04:55:21;13.30;99.90
14893;DHT22;7538;53.626;9.906;2022-10-16T04:57:47;13.30;99.90
14893;DHT22;7538;53.626;9.906;2022-10-16T05:00:15;13.20;99.90
14893;DHT22;7538;53.626;9.906;2022-10-16T05:02:42;13.20;99.90
14893;DHT22;7538;53.626;9.906;2022-10-16T05:05:10;13.20;99.90
14893;DHT22;7538;53.626;9.906;2022-10-16T05:07:37;13.20;99.90
14893;DHT22;7538;53.626;9.906;2022-10-16T05:10:04;13.20;99.90
14893;DHT22;7538;53.626;9.906;2022-10-16T05:12:31;13.20;99.90
14893;DHT22;7538;53.626;9.906;2022-10-16T05:14:58;13.20;99.90
14893;DHT22;7538;53.626;9.906;2022-10-16T05:17:25;13.20;99.90
14893;DHT22;7538;53.626;9.906;2022-10-16T05:19:52;13.10;99.90
14893;DHT22;7538;53.626;9.906;2022-10-16T05:22:20;13.10;99.90
14893;DHT22;7538;53.626;9.906;2022-10-16T05:24:47;13.10;99.90
14893;DHT22;7538;53.626;9.906;2022-10-16T05:27:14;13.00;99.90
14893;DHT22;7538;53.626;9.906;2022-10-16T05:29:44;13.00;99.90
14893;DHT22;7538;53.626;9.906;2022-10-16T05:32:12;13.00;99.90
14893;DHT22;7538;53.626;9.906;2022-10-16T05:34:39;13.10;99.90
14893;DHT22;7538;53.626;9.906;2022-10-16T05:37:06;13.10;99.90
14893;DHT22;7538;53.626;9.906;2022-10-16T05:39:34;13.10;99.90
14893;DHT22;7538;53.626;9.906;2022-10-16T05:42:02;13.10;99.90
14893;DHT22;7538;53.626;9.906;2022-10-16T05:44:29;13.20;99.90
14893;DHT22;7538;53.626;9.906;2022-10-16T05:46:56;13.20;99.90
14893;DHT22;7538;53.626;9.906;2022-10-16T05:49:23;13.20;99.90
14893;DHT22;7538;53.626;9.906;2022-10-16T05:51:49;13.10;99.90
14893;DHT22;7538;53.626;9.906;2022-10-16T05:54:16;13.10;99.90
14893;DHT22;7538;53.626;9.906;2022-10-16T05:56:44;13.10;99.90
14893;DHT22;7538;53.626;9.906;2022-10-16T05:59:11;13.10;99.90
14893;DHT22;7538;53.626;9.906;2022-10-16T06:01:38;13.10;99.90
14893;DHT22;7538;53.626;9.906;2022-10-16T06:04:04;13.20;99.90
14893;DHT22;7538;53.626;9.906;2022-10-16T06:06:31;13.20;99.90
14893;DHT22;7538;53.626;9.906;2022-10-16T06:08:58;13.30;99.90
14893;DHT22;7538;53.626;9.906;2022-10-16T06:11:27;13.30;99.90
14893;DHT22;7538;53.626;9.906;2022-10-16T06:13:57;13.30;99.90
14893;DHT22;7538;53.626;9.906;2022-10-16T06:16:26;13.30;99.90
14893;DHT22;7538;53.626;9.906;2022-10-16T06:18:54;13.30;99.90
14893;DHT22;7538;53.626;9.906;2022-10-16T06:21:22;13.00;99.90
14893;DHT22;7538;53.626;9.906;2022-10-16T06:23:50;13.30;99.90
14893;DHT22;7538;53.626;9.906;2022-10-16T06:26:22;13.30;99.90
14893;DHT22;7538;53.626;9.906;2022-10-16T06:28:49;13.30;99.90
14893;DHT22;7538;53.626;9.906;2022-10-16T06:31:17;13.30;99.90
14893;DHT22;7538;53.626;9.906;2022-10-16T06:33:51;13.40;99.90
14893;DHT22;7538;53.626;9.906;2022-10-16T06:36:32;13.40;99.90
14893;DHT22;7538;53.626;9.906;2022-10-16T06:38:59;13.40;99.90
14893;DHT22;7538;53.626;9.906;2022-10-16T06:41:26;13.40;99.90
14893;DHT22;7538;53.626;9.906;2022-10-16T06:43:53;13.50;99.90
14893;DHT22;7538;53.626;9.906;2022-10-16T06:46:22;13.60;99.90
14893;DHT22;7538;53.626;9.906;2022-10-16T06:48:49;13.70;99.90
14893;DHT22;7538;53.626;9.906;2022-10-16T06:54:38;14.00;99.90
14893;DHT22;7538;53.626;9.906;2022-10-16T06:57:05;14.10;99.90
14893;DHT22;7538;53.626;9.906;2022-10-16T06:59:31;14.20;99.90
14893;DHT22;7538;53.626;9.906;2022-10-16T07:01:59;14.40;99.90
14893;DHT22;7538;53.626;9.906;2022-10-16T07:04:26;14.50;99.90
14893;DHT22;7538;53.626;9.906;2022-10-16T07:06:53;14.70;99.90
14893;DHT22;7538;53.626;9.906;2022-10-16T07:09:20;14.80;99.90
14893;DHT22;7538;53.626;9.906;2022-10-16T07:11:46;15.00;99.90
14893;DHT22;7538;53.626;9.906;2022-10-16T07:14:17;15.10;99.90
14893;DHT22;7538;53.626;9.906;2022-10-16T07:16:44;15.30;99.90
14893;DHT22;7538;53.626;9.906;2022-10-16T07:19:13;15.30;99.90
14893;DHT22;7538;53.626;9.906;2022-10-16T07:21:41;15.30;99.90
14893;DHT22;7538;53.626;9.906;2022-10-16T07:24:11;15.40;99.90
14893;DHT22;7538;53.626;9.906;2022-10-16T07:26:39;13.30;99.90
14893;DHT22;7538;53.626;9.906;2022-10-16T07:29:17;15.50;99.90
14893;DHT22;7538;53.626;9.906;2022-10-16T07:31:44;15.50;99.90
14893;DHT22;7538;53.626;9.906;2022-10-16T07:34:13;17.40;99.90
14893;DHT22;7538;53.626;9.906;2022-10-16T07:40:03;16.20;99.90
14893;DHT22;7538;53.626;9.906;2022-10-16T07:42:30;16.70;99.90
14893;DHT22;7538;53.626;9.906;2022-10-16T07:44:57;17.20;99.90
14893;DHT22;7538;53.626;9.906;2022-10-16T07:50:47;18.60;99.90
14893;DHT22;7538;53.626;9.906;2022-10-16T07:53:14;18.60;99.90
14893;DHT22;7538;53.626;9.906;2022-10-16T07:55:41;18.50;99.90
14893;DHT22;7538;53.626;9.906;2022-10-16T07:58:08;18.60;99.90
14893;DHT22;7538;53.626;9.906;2022-10-16T08:00:36;18.60;99.90
14893;DHT22;7538;53.626;9.906;2022-10-16T08:03:03;18.40;99.90
14893;DHT22;7538;53.626;9.906;2022-10-16T08:05:31;18.20;99.90
14893;DHT22;7538;53.626;9.906;2022-10-16T08:08:00;18.00;99.90
14893;DHT22;7538;53.626;9.906;2022-10-16T08:10:29;17.80;99.90
14893;DHT22;7538;53.626;9.906;2022-10-16T08:13:02;17.60;99.90
14893;DHT22;7538;53.626;9.906;2022-10-16T08:15:29;17.60;99.90
14893;DHT22;7538;53.626;9.906;2022-10-16T08:18:18;17.70;99.90
14893;DHT22;7538;53.626;9.906;2022-10-16T08:20:45;18.10;99.90
14893;DHT22;7538;53.626;9.906;2022-10-16T08:23:13;18.20;99.90
14893;DHT22;7538;53.626;9.906;2022-10-16T08:25:40;18.70;99.90
14893;DHT22;7538;53.626;9.906;2022-10-16T08:28:08;19.70;99.90
14893;DHT22;7538;53.626;9.906;2022-10-16T08:30:36;20.80;99.90
14893;DHT22;7538;53.626;9.906;2022-10-16T08:33:03;21.30;99.90
14893;DHT22;7538;53.626;9.906;2022-10-16T08:35:30;21.70;99.90
14893;DHT22;7538;53.626;9.906;2022-10-16T08:37:57;22.10;99.90
14893;DHT22;7538;53.626;9.906;2022-10-16T08:40:31;22.30;99.90
14893;DHT22;7538;53.626;9.906;2022-10-16T08:43:28;21.90;99.90
14893;DHT22;7538;53.626;9.906;2022-10-16T08:46:21;21.50;99.90
14893;DHT22;7538;53.626;9.906;2022-10-16T08:49:00;21.50;99.90
14893;DHT22;7538;53.626;9.906;2022-10-16T08:51:31;21.90;99.90
14893;DHT22;7538;53.626;9.906;2022-10-16T08:54:02;22.40;99.90
14893;DHT22;7538;53.626;9.906;2022-10-16T08:56:31;23.00;99.90
14893;DHT22;7538;53.626;9.906;2022-10-16T08:58:59;23.00;99.60
14893;DHT22;7538;53.626;9.906;2022-10-16T09:01:37;23.50;97.90
14893;DHT22;7538;53.626;9.906;2022-10-16T09:04:45;23.70;96.40
14893;DHT22;7538;53.626;9.906;2022-10-16T09:07:18;23.50;96.30
14893;DHT22;7538;53.626;9.906;2022-10-16T09:10:02;23.50;97.30
14893;DHT22;7538;53.626;9.906;2022-10-16T09:12:35;23.30;96.60
14893;DHT22;7538;53.626;9.906;2022-10-16T09:15:13;23.50;96.90
14893;DHT22;7538;53.626;9.906;2022-10-16T09:17:48;24.00;95.90
14893;DHT22;7538;53.626;9.906;2022-10-16T09:20:26;24.60;94.20
14893;DHT22;7538;53.626;9.906;2022-10-16T09:25:49;22.70;90.60
14893;DHT22;7538;53.626;9.906;2022-10-16T09:28:18;25.70;90.00
14893;DHT22;7538;53.626;9.906;2022-10-16T09:30:45;26.40;88.10
14893;DHT22;7538;53.626;9.906;2022-10-16T09:33:29;26.90;84.20
14893;DHT22;7538;53.626;9.906;2022-10-16T09:35:57;27.00;80.70
14893;DHT22;7538;53.626;9.906;2022-10-16T09:38:27;26.80;79.20
14893;DHT22;7538;53.626;9.906;2022-10-16T09:40:55;26.70;80.90
14893;DHT22;7538;53.626;9.906;2022-10-16T09:44:01;26.80;80.00
14893;DHT22;7538;53.626;9.906;2022-10-16T09:46:30;26.00;77.60
14893;DHT22;7538;53.626;9.906;2022-10-16T09:48:58;26.80;77.20
14893;DHT22;7538;53.626;9.906;2022-10-16T09:54:52;26.00;81.70
14893;DHT22;7538;53.626;9.906;2022-10-16T09:57:19;25.70;83.50
14893;DHT22;7538;53.626;9.906;2022-10-16T09:59:49;25.90;85.60
14893;DHT22;7538;53.626;9.906;2022-10-16T10:02:18;25.60;83.30
14893;DHT22;7538;53.626;9.906;2022-10-16T10:04:49;25.70;84.70
14893;DHT22;7538;53.626;9.906;2022-10-16T10:07:23;25.90;85.30
14893;DHT22;7538;53.626;9.906;2022-10-16T10:09:51;25.90;83.60
14893;DHT22;7538;53.626;9.906;2022-10-16T10:12:20;25.60;83.10
14893;DHT22;7538;53.626;9.906;2022-10-16T10:14:50;24.90;86.90
14893;DHT22;7538;53.626;9.906;2022-10-16T10:17:19;24.30;90.80
14893;DHT22;7538;53.626;9.906;2022-10-16T10:20:18;23.50;92.80
14893;DHT22;7538;53.626;9.906;2022-10-16T10:22:47;23.00;95.40
14893;DHT22;7538;53.626;9.906;2022-10-16T10:25:41;22.40;97.20
14893;DHT22;7538;53.626;9.906;2022-10-16T10:31:39;21.70;99.90
14893;DHT22;7538;53.626;9.906;2022-10-16T10:36:48;20.90;99.90
14893;DHT22;7538;53.626;9.906;2022-10-16T10:39:20;20.80;99.90
14893;DHT22;7538;53.626;9.906;2022-10-16T10:45:26;20.40;99.90
14893;DHT22;7538;53.626;9.906;2022-10-16T10:48:10;20.40;99.90
14893;DHT22;7538;53.626;9.906;2022-10-16T10:50:42;20.50;99.90
14893;DHT22;7538;53.626;9.906;2022-10-16T10:53:25;20.70;99.90
14893;DHT22;7538;53.626;9.906;2022-10-16T10:56:04;20.60;99.90
14893;DHT22;7538;53.626;9.906;2022-10-16T11:01:56;20.50;99.90
14893;DHT22;7538;53.626;9.906;2022-10-16T11:07:19;20.20;99.90
14893;DHT22;7538;53.626;9.906;2022-10-16T11:10:26;20.20;99.90
14893;DHT22;7538;53.626;9.906;2022-10-16T11:13:03;19.90;99.90
14893;DHT22;7538;53.626;9.906;2022-10-16T11:15:37;20.10;99.90
14893;DHT22;7538;53.626;9.906;2022-10-16T11:18:08;20.10;99.90
14893;DHT22;7538;53.626;9.906;2022-10-16T11:20:42;20.00;99.90
14893;DHT22;7538;53.626;9.906;2022-10-16T11:23:16;20.00;99.90
14893;DHT22;7538;53.626;9.906;2022-10-16T11:25:45;20.00;99.90
14893;DHT22;7538;53.626;9.906;2022-10-16T11:31:38;20.30;99.90
14893;DHT22;7538;53.626;9.906;2022-10-16T11:34:12;20.10;99.90
14893;DHT22;7538;53.626;9.906;2022-10-16T11:36:46;20.10;99.90
14893;DHT22;7538;53.626;9.906;2022-10-16T11:39:21;20.10;99.90
14893;DHT22;7538;53.626;9.906;2022-10-16T11:44:57;20.50;99.90
14893;DHT22;7538;53.626;9.906;2022-10-16T11:47:31;20.10;99.90
14893;DHT22;7538;53.626;9.906;2022-10-16T11:50:38;20.10;99.90
14893;DHT22;7538;53.626;9.906;2022-10-16T11:53:13;20.30;99.90
14893;DHT22;7538;53.626;9.906;2022-10-16T11:55:45;20.30;99.90
14893;DHT22;7538;53.626;9.906;2022-10-16T11:58:21;20.30;99.90
14893;DHT22;7538;53.626;9.906;2022-10-16T12:00:55;20.30;99.90
14893;DHT22;7538;53.626;9.906;2022-10-16T12:03:27;20.20;99.90
14893;DHT22;7538;53.626;9.906;2022-10-16T12:06:09;20.30;99.90
14893;DHT22;7538;53.626;9.906;2022-10-16T12:08:43;20.20;99.90
14893;DHT22;7538;53.626;9.906;2022-10-16T12:11:24;20.20;99.90
14893;DHT22;7538;53.626;9.906;2022-10-16T12:14:17;20.30;99.90
14893;DHT22;7538;53.626;9.906;2022-10-16T12:16:52;20.40;99.90
14893;DHT22;7538;53.626;9.906;2022-10-16T12:19:21;20.30;99.90
14893;DHT22;7538;53.626;9.906;2022-10-16T12:21:48;20.20;99.90
14893;DHT22;7538;53.626;9.906;2022-10-16T12:24:26;20.10;99.90
14893;DHT22;7538;53.626;9.906;2022-10-16T12:26:55;20.10;99.90
14893;DHT22;7538;53.626;9.906;2022-10-16T12:29:34;20.10;99.90
14893;DHT22;7538;53.626;9.906;2022-10-16T12:32:03;20.30;99.90
14893;DHT22;7538;53.626;9.906;2022-10-16T12:34:36;20.30;99.10
14893;DHT22;7538;53.626;9.906;2022-10-16T12:37:13;20.20;99.60
14893;DHT22;7538;53.626;9.906;2022-10-16T12:39:41;20.20;99.60
14893;DHT22;7538;53.626;9.906;2022-10-16T12:42:31;20.20;99.30
14893;DHT22;7538;53.626;9.906;2022-10-16T12:44:59;20.20;99.70
14893;DHT22;7538;53.626;9.906;2022-10-16T12:47:37;20.30;99.20
14893;DHT22;7538;53.626;9.906;2022-10-16T12:50:27;20.20;99.10
14893;DHT22;7538;53.626;9.906;2022-10-16T12:52:54;20.20;99.30
14893;DHT22;7538;53.626;9.906;2022-10-16T12:55:21;20.10;99.30
14893;DHT22;7538;53.626;9.906;2022-10-16T12:58:00;20.10;99.60
14893;DHT22;7538;53.626;9.906;2022-10-16T13:00:35;20.00;99.90
14893;DHT22;7538;53.626;9.906;2022-10-16T13:03:27;19.80;99.90
14893;DHT22;7538;53.626;9.906;2022-10-16T13:06:05;19.80;99.90
14893;DHT22;7538;53.626;9.906;2022-10-16T13:08:44;19.70;99.90
14893;DHT22;7538;53.626;9.906;2022-10-16T13:11:20;19.80;99.90
14893;DHT22;7538;53.626;9.906;2022-10-16T13:14:00;19.80;99.90
14893;DHT22;7538;53.626;9.906;2022-10-16T13:16:34;19.80;99.90
14893;DHT22;7538;53.626;9.906;2022-10-16T13:19:14;19.80;99.90
14893;DHT22;7538;53.626;9.906;2022-10-16T13:21:47;19.60;99.90
14893;DHT22;7538;53.626;9.906;2022-10-16T13:24:26;19.50;99.90
14893;DHT22;7538;53.626;9.906;2022-10-16T13:27:04;19.60;99.90
14893;DHT22;7538;53.626;9.906;2022-10-16T13:29:35;19.70;99.90
14893;DHT22;7538;53.626;9.906;2022-10-16T13:32:07;19.90;99.90
14893;DHT22;7538;53.626;9.906;2022-10-16T13:34:43;20.00;99.90
14893;DHT22;7538;53.626;9.906;2022-10-16T13:40:28;20.10;99.90
14893;DHT22;7538;53.626;9.906;2022-10-16T13:42:55;20.00;99.90
14893;DHT22;7538;53.626;9.906;2022-10-16T13:45:24;21.40;99.60
14893;DHT22;7538;53.626;9.906;2022-10-16T13:48:01;19.70;99.60
14893;DHT22;7538;53.626;9.906;2022-10-16T13:50:28;19.70;99.90
14893;DHT22;7538;53.626;9.906;2022-10-16T13:53:03;19.60;99.90
14893;DHT22;7538;53.626;9.906;2022-10-16T13:55:31;19.70;99.90
14893;DHT22;7538;53.626;9.906;2022-10-16T13:58:05;19.60;99.90
14893;DHT22;7538;53.626;9.906;2022-10-16T14:00:33;19.70;99.10
14893;DHT22;7538;53.626;9.906;2022-10-16T14:03:03;19.50;98.40
14893;DHT22;7538;53.626;9.906;2022-10-16T14:05:30;19.50;99.70
14893;DHT22;7538;53.626;9.906;2022-10-16T14:07:57;19.50;99.50
14893;DHT22;7538;53.626;9.906;2022-10-16T14:10:27;19.50;99.90
14893;DHT22;7538;53.626;9.906;2022-10-16T14:12:57;19.40;99.90
14893;DHT22;7538;53.626;9.906;2022-10-16T14:15:24;19.30;99.90
14893;DHT22;7538;53.626;9.906;2022-10-16T14:17:53;19.30;99.90
14893;DHT22;7538;53.626;9.906;2022-10-16T14:20:24;19.30;99.90
14893;DHT22;7538;53.626;9.906;2022-10-16T14:22:59;19.30;99.90
14893;DHT22;7538;53.626;9.906;2022-10-16T14:25:28;19.30;99.90
14893;DHT22;7538;53.626;9.906;2022-10-16T14:28:26;19.30;99.90
14893;DHT22;7538;53.626;9.906;2022-10-16T14:31:00;19.50;99.90
14893;DHT22;7538;53.626;9.906;2022-10-16T14:33:33;19.30;99.90
14893;DHT22;7538;53.626;9.906;2022-10-16T14:36:03;19.20;99.90
14893;DHT22;7538;53.626;9.906;2022-10-16T14:38:32;19.20;99.90
14893;DHT22;7538;53.626;9.906;2022-10-16T14:41:00;19.10;99.90
14893;DHT22;7538;53.626;9.906;2022-10-16T14:43:32;19.10;99.90
14893;DHT22;7538;53.626;9.906;2022-10-16T14:46:00;19.00;99.90
14893;DHT22;7538;53.626;9.906;2022-10-16T14:48:28;19.10;99.90
14893;DHT22;7538;53.626;9.906;2022-10-16T14:50:56;19.10;99.90
14893;DHT22;7538;53.626;9.906;2022-10-16T14:53:23;19.00;99.90
14893;DHT22;7538;53.626;9.906;2022-10-16T14:55:49;19.00;99.90
14893;DHT22;7538;53.626;9.906;2022-10-16T14:58:18;19.00;99.90
14893;DHT22;7538;53.626;9.906;2022-10-16T15:00:45;19.00;99.90
14893;DHT22;7538;53.626;9.906;2022-10-16T15:03:12;18.90;99.90
14893;DHT22;7538;53.626;9.906;2022-10-16T15:05:39;18.90;99.90
14893;DHT22;7538;53.626;9.906;2022-10-16T15:08:08;18.80;99.90
14893;DHT22;7538;53.626;9.906;2022-10-16T15:10:40;18.70;99.90
14893;DHT22;7538;53.626;9.906;2022-10-16T15:13:11;18.60;99.90
14893;DHT22;7538;53.626;9.906;2022-10-16T15:15:42;18.50;99.90
14893;DHT22;7538;53.626;9.906;2022-10-16T15:18:09;18.50;99.90
14893;DHT22;7538;53.626;9.906;2022-10-16T15:20:37;18.50;99.90
14893;DHT22;7538;53.626;9.906;2022-10-16T15:23:05;18.60;99.90
14893;DHT22;7538;53.626;9.906;2022-10-16T15:25:38;18.50;99.90
14893;DHT22;7538;53.626;9.906;2022-10-16T15:28:06;18.50;99.90
14893;DHT22;7538;53.626;9.906;2022-10-16T15:30:34;18.50;99.90
14893;DHT22;7538;53.626;9.906;2022-10-16T15:33:01;18.40;99.90
14893;DHT22;7538;53.626;9.906;2022-10-16T15:35:28;18.30;99.90
14893;DHT22;7538;53.626;9.906;2022-10-16T15:37:55;18.30;99.90
14893;DHT22;7538;53.626;9.906;2022-10-16T15:40:23;18.30;99.90
14893;DHT22;7538;53.626;9.906;2022-10-16T15:42:51;18.20;99.90
14893;DHT22;7538;53.626;9.906;2022-10-16T15:45:18;18.10;99.90
14893;DHT22;7538;53.626;9.906;2022-10-16T15:47:45;18.10;99.90
14893;DHT22;7538;53.626;9.906;2022-10-16T15:50:14;18.00;99.90
14893;DHT22;7538;53.626;9.906;2022-10-16T15:52:41;17.90;99.90
14893;DHT22;7538;53.626;9.906;2022-10-16T15:55:09;17.80;99.90
14893;DHT22;7538;53.626;9.906;2022-10-16T15:57:36;14.40;99.90
14893;DHT22;7538;53.626;9.906;2022-10-16T16:00:09;17.70;99.90
14893;DHT22;7538;53.626;9.906;2022-10-16T16:02:37;17.60;99.90
14893;DHT22;7538;53.626;9.906;2022-10-16T16:05:04;17.50;99.90
14893;DHT22;7538;53.626;9.906;2022-10-16T16:07:32;17.40;99.90
14893;DHT22;7538;53.626;9.906;2022-10-16T16:09:59;17.30;99.90
14893;DHT22;7538;53.626;9.906;2022-10-16T16:12:26;17.40;99.90
14893;DHT22;7538;53.626;9.906;2022-10-16T16:14:53;17.20;99.90
14893;DHT22;7538;53.626;9.906;2022-10-16T16:17:21;17.10;99.90
14893;DHT22;7538;53.626;9.906;2022-10-16T16:19:49;17.00;99.90
14893;DHT22;7538;53.626;9.906;2022-10-16T16:22:15;16.90;99.90
14893;DHT22;7538;53.626;9.906;2022-10-16T16:24:42;16.80;99.90
14893;DHT22;7538;53.626;9.906;2022-10-16T16:27:09;16.70;99.90
14893;DHT22;7538;53.626;9.906;2022-10-16T16:29:36;16.70;99.90
14893;DHT22;7538;53.626;9.906;2022-10-16T16:32:03;16.70;99.90
14893;DHT22;7538;53.626;9.906;2022-10-16T16:34:31;16.50;99.90
14893;DHT22;7538;53.626;9.906;2022-10-16T16:36:58;16.40;99.90
14893;DHT22;7538;53.626;9.906;2022-10-16T16:39:25;16.20;99.90
14893;DHT22;7538;53.626;9.906;2022-10-16T16:41:52;16.30;99.90
14893;DHT22;7538;53.626;9.906;2022-10-16T16:44:19;16.20;99.90
14893;DHT22;7538;53.626;9.906;2022-10-16T16:46:45;16.10;99.90
14893;DHT22;7538;53.626;9.906;2022-10-16T16:49:13;16.00;99.90